Main page
METAR-TAF:

METAR-TAF

Airports :

Zabol Airport

Zabol, Iran

latitude: 31-20N, longitude: 061-29E, elevation: 489 m

Current weather observation

The report was made 26 minutes ago, at 08:00 UTC
Wind 27 kt from the North/Northwest with gusts up to 37 kt
Temperature 37°C
Humidity 21%
Pressure 1000 hPa
Visibility: 3000 m
sand

METAR: OIZB 300800Z 33027G37KT 3000 SA NSC 37/11 Q1000

Time: 12:56 (08:26 UTC)


TAF: missing

Weather observations and forecasts of more than 4000 airports (METAR and TAF reports).

The available stations are represented by yellow and red dots on the map.

Hover mouse over dot to see the name of the station.

Then click to see weather observations and forecasts.

To change the map : click on the green buttons with a black cross to zoom in, on the green button with a dash to zoom out, or on the green arrows for adjacent maps.


METAR-TAF: